AirNav   Pilot Hours Calculator
 
 1429 users online  

MS26 Cedar Creek Air Ranch Airport
Lucedale, Mississippi, USA

GOING TO LUCEDALE?


FAA INFORMATION EFFECTIVE 30 DECEMBER 2021

Location

FAA Identifier: MS26
Lat/Long: 30-48-08.0000N 088-32-51.0000W
30-48.133333N 088-32.850000W
30.8022222,-88.5475000
(estimated)
Elevation: 165 ft. / 50 m (estimated)
From city: 7 miles SE of LUCEDALE, MS
Time zone: UTC -6 (UTC -5 during Daylight Saving Time)
Zip code: 39452

Airport Operations

Airport use: Private use. Permission required prior to landing
Activation date: 05/2005
Control tower: no
ARTCC: HOUSTON CENTER
FSS: GREENWOOD FLIGHT SERVICE STATION
Attendance: CONTINUOUS
Wind indicator: yes
Segmented circle: no
Lights: CALL 601-947-6400 TO ARRANGE TURNING ON LTS.
Beacon: white (unlighted land airport)
INOPERABLE. Operates sunset to sunrise.

Airport Communications

WX ASOS at MOB (17 nm SE): 124.75 (251-607-0469)

Nearby radio navigation aids

VOR radial/distance  VOR name  Freq  Var
SJIr290/10.7SEMMES VORTAC115.3005E
GCVr185/18.0GREENE COUNTY VORTAC115.7005E
BFMr290/27.8BROOKLEY VORTAC112.8004E
GPTr047/36.2GULFPORT VORTAC109.0002E

 
NDB name  Hdg/Dist  Freq  Var  ID
WISLE282/12.824801WMOB -- --- -...

Airport Services

Runway Information

Runway 18/36

Dimensions: 4080 x 60 ft. / 1244 x 18 m
Surface: turf
Runway edge lights: low intensity
RUNWAY 18  RUNWAY 36
Traffic pattern: leftright
Displaced threshold: 320 ft.560 ft.
Obstructions: 50 ft. trees, 580 ft. from runway50 ft. trees, 40 ft. from runway

Airport Ownership and Management from official FAA records

Ownership: Privately-owned
Owner: JOHN W. SMITH AND KENNETH MALLETTE
223 AIR RANCH ROAD
LUCEDALE, MS 39452
Phone 601-947-9240
Manager: JOHN W. SMITH
223 AIR RANCH ROAD
LUCEDALE, MS 39452
Phone (662) 213-6240
ADDL PH. 601-947-6400

Airport Operational Statistics

Aircraft based on the field: 3
Single engine airplanes: 3
    

Additional Remarks

FOR CD CTC MOBILE APCH AT 251-662-6236, WHEN APCH CLSD CTC HOUSTON ARTCC AT 281-230-5622.

Instrument Procedures

There are no published instrument procedures at MS26.

Some nearby airports with instrument procedures:

KMOB - Mobile Regional Airport (17 nm SE)
KPQL - Trent Lott International Airport (20 nm S)
2R5 - St Elmo Airport (23 nm SE)
KBFM - Mobile Downtown Airport (27 nm SE)
KBIX - Keesler Air Force Base (31 nm SW)
 
Loc | Ops | Rwys | IFR | FBO | Links
Com | Nav | Svcs | Stats | Notes
Area around MS26 (Cedar Creek Air Ranch Airport)
 
Road maps at: MapQuest Bing Google
 
Aerial photo
WARNING: Photo may not be current or correct
Aerial photo of MS26 (Cedar Creek Air Ranch Airport)
Photo taken 03-Dec-2004
from the south southeast

Do you have a better or more recent aerial photo of Cedar Creek Air Ranch Airport that you would like to share? If so, please send us your photo.

 
Sectional chart

 
Airport distance calculator
Flying to Cedar Creek Air Ranch Airport? Find the distance to fly.

From to MS26

Sunrise and sunset
Times for 19-Jan-2022
 Local
(UTC-6)
 Zulu
(UTC)
Morning civil twilight06:2712:27
Sunrise06:5312:53
Sunset17:1723:17
Evening civil twilight17:4323:43

Current date and time
Zulu (UTC)  19-Jan-2022 17:40:06
Local (UTC-6)  19-Jan-2022 11:40:06
 
METAR
KMOB 
17nm SE 
191656Z 14011G20KT 10SM FEW038 SCT060 BKN250 19/13 A3016 RMK AO2 SLP212 T01890133
KPQL 
20nm S 
191653Z 16010KT 10SM FEW026 OVC060 21/15 A3015 RMK AO2 SLP211 T02110150
KBFM 
27nm SE 
191653Z 15013KT 10SM FEW031 BKN060 18/13 A3018 RMK AO2 SLP219 T01830128 $
KBIX 
30nm SW 
191656Z AUTO 16009KT 10SM BKN065 21/15 A3012 RMK AO2 SLP203 T02060151
TAF
KMOB 
17nm SE 
191120Z 1912/2012 12007KT P6SM BKN040 FM191600 15010KT P6SM BKN040 FM200500 17006KT P6SM VCSH BKN020 FM201100 21004KT 4SM RA OVC015
NOTAMs
Click for the latest NOTAMs
NOTAMs are issued by the DoD/FAA and will open in a separate window not controlled by AirNav.

 

 
 

Would you like to see your business listed on this page?

 If your business provides an interesting product or service to pilots, flight crews, aircraft, or users of the Cedar Creek Air Ranch Airport, you should consider listing it here.  To start the listing process, click on the button below
 
Add a business
 

Other Pages about Cedar Creek Air Ranch Airport

Update a link
 
Copyright © AirNav, LLC. All rights reserved. Privacy Policy  Contact